Time;durP1;ratioP1;P1;durP2;ratioP2;P2;SDS_P1;SDS_P2;PMS_P1;PMS_P2;Temp;Humidity;BMP_temperature;BMP_pressure;BME280_temperature;BME280_humidity;BME280_pressure;Samples;Min_cycle;Max_cycle;Signal;HPM_P1;HPM_P2
2023/08/18 00:00:28;;;;;;;6.57;5.97;;;24.70;72.90;;;;;;5012128;28;20034;-63
2023/08/18 00:02:54;;;;;;;6.75;6.18;;;24.70;72.90;;;;;;4993639;28;20025;-65
2023/08/18 00:05:19;;;;;;;6.25;5.65;;;24.70;72.90;;;;;;5007563;28;20034;-65
2023/08/18 00:07:45;;;;;;;6.82;5.63;;;24.70;72.90;;;;;;5006015;28;20025;-66
2023/08/18 00:10:11;;;;;;;6.50;5.82;;;24.70;72.80;;;;;;5007297;28;20536;-65
2023/08/18 00:12:36;;;;;;;6.00;5.50;;;24.70;72.80;;;;;;5009663;28;20037;-65
2023/08/18 00:15:02;;;;;;;6.50;5.90;;;24.70;72.80;;;;;;5009170;28;20084;-66
2023/08/18 00:17:28;;;;;;;6.45;5.78;;;24.70;72.80;;;;;;5008575;28;20121;-65
2023/08/18 00:19:53;;;;;;;6.57;5.97;;;24.70;72.80;;;;;;5005976;28;20030;-65
2023/08/18 00:22:19;;;;;;;6.85;6.25;;;24.70;72.70;;;;;;5012922;28;20040;-66
2023/08/18 00:24:44;;;;;;;6.13;5.55;;;24.70;72.70;;;;;;5008687;28;20132;-65
2023/08/18 00:27:10;;;;;;;5.05;4.65;;;24.70;72.70;;;;;;5007714;28;20520;-64
2023/08/18 00:29:36;;;;;;;5.90;5.40;;;24.70;72.70;;;;;;5007932;28;20587;-66
2023/08/18 00:32:02;;;;;;;6.60;6.00;;;24.70;72.70;;;;;;5010857;28;20109;-63
2023/08/18 00:34:28;;;;;;;5.47;5.03;;;24.70;72.70;;;;;;5006370;28;20201;-65
2023/08/18 00:36:53;;;;;;;6.70;5.07;;;24.70;72.80;;;;;;5001246;28;20049;-64
2023/08/18 00:39:19;;;;;;;6.45;5.85;;;24.70;72.70;;;;;;5006532;28;20022;-64
2023/08/18 00:41:44;;;;;;;6.05;5.47;;;24.70;72.60;;;;;;5007172;28;20033;-65
2023/08/18 00:44:10;;;;;;;5.25;4.85;;;24.70;72.60;;;;;;5009379;28;20034;-65
2023/08/18 00:46:36;;;;;;;5.93;5.43;;;24.70;72.60;;;;;;5009158;28;20042;-65
2023/08/18 00:49:04;;;;;;;5.80;5.28;;;24.70;72.60;;;;;;5009180;28;20034;-64
2023/08/18 00:51:33;;;;;;;6.38;5.72;;;24.70;72.60;;;;;;5007751;28;20041;-65
2023/08/18 00:53:59;;;;;;;5.30;4.90;;;24.70;72.60;;;;;;5011956;28;20371;-65
2023/08/18 00:56:25;;;;;;;6.00;5.50;;;24.70;72.60;;;;;;5012951;28;20463;-65
2023/08/18 00:58:51;;;;;;;6.80;5.95;;;24.70;72.70;;;;;;5008866;28;20034;-65
2023/08/18 01:01:16;;;;;;;6.55;5.95;;;24.70;72.60;;;;;;5008984;28;20026;-62
2023/08/18 01:03:43;;;;;;;5.70;5.20;;;24.70;72.60;;;;;;5002866;28;20044;-65
2023/08/18 01:06:09;;;;;;;5.93;5.30;;;24.70;72.60;;;;;;5002954;28;20066;-65
2023/08/18 01:08:34;;;;;;;5.78;5.00;;;24.70;72.60;;;;;;5000590;28;20034;-63
2023/08/18 01:11:09;;;;;;;6.65;5.57;;;24.70;72.70;;;;;;4985943;28;20037;-65
2023/08/18 01:13:54;;;;;;;5.20;4.72;;;24.70;72.60;;;;;;5007163;28;20033;-65
2023/08/18 01:16:27;;;;;;;5.10;4.70;;;24.70;72.60;;;;;;5006682;28;20485;-61
2023/08/18 01:18:54;;;;;;;5.85;5.28;;;24.70;72.60;;;;;;5006153;28;20125;-65
2023/08/18 01:21:21;;;;;;;6.43;5.82;;;24.70;72.60;;;;;;5010384;28;20175;-64
2023/08/18 01:23:47;;;;;;;7.20;5.28;;;24.70;72.60;;;;;;5006370;28;20030;-60
2023/08/18 01:26:13;;;;;;;6.03;5.53;;;24.70;73.20;;;;;;5013410;28;20026;-65
2023/08/18 01:28:39;;;;;;;5.45;5.05;;;24.70;72.70;;;;;;5009902;28;20026;-66
2023/08/18 01:31:10;;;;;;;5.22;4.82;;;24.70;72.60;;;;;;5003728;28;20045;-64
2023/08/18 01:33:48;;;;;;;6.10;5.60;;;24.70;72.70;;;;;;5003406;28;20062;-64
2023/08/18 01:36:19;;;;;;;5.88;5.28;;;24.70;72.60;;;;;;5001187;28;20038;-64
2023/08/18 01:38:46;;;;;;;5.85;5.38;;;24.70;72.70;;;;;;5002514;28;20068;-65
2023/08/18 01:41:14;;;;;;;5.82;5.32;;;24.70;72.60;;;;;;5007659;28;20029;-65
2023/08/18 01:43:40;;;;;;;5.75;5.15;;;24.70;72.70;;;;;;5005373;28;20041;-65
2023/08/18 01:46:05;;;;;;;6.43;5.85;;;24.70;72.60;;;;;;5009228;28;20120;-64
2023/08/18 01:48:31;;;;;;;5.53;5.10;;;24.70;72.60;;;;;;5006969;28;20431;-64
2023/08/18 01:50:56;;;;;;;5.70;5.28;;;24.70;72.60;;;;;;5008204;28;20033;-62
2023/08/18 01:53:22;;;;;;;5.95;5.47;;;24.70;72.60;;;;;;5005692;28;20477;-64
2023/08/18 01:55:47;;;;;;;6.10;5.50;;;24.70;72.60;;;;;;5009718;28;20382;-65
2023/08/18 01:58:13;;;;;;;6.13;5.50;;;24.70;72.60;;;;;;5001813;28;20030;-62
2023/08/18 02:00:38;;;;;;;5.90;5.40;;;24.70;72.60;;;;;;5004731;28;20037;-64
2023/08/18 02:03:04;;;;;;;5.60;5.10;;;24.60;72.50;;;;;;5002132;28;20425;-62
2023/08/18 02:05:30;;;;;;;5.65;5.22;;;24.70;72.70;;;;;;5003510;28;20026;-64
2023/08/18 02:07:57;;;;;;;5.68;5.22;;;24.60;72.60;;;;;;5002123;28;20113;-64
2023/08/18 02:10:23;;;;;;;5.75;5.28;;;24.70;72.60;;;;;;5007150;28;20037;-61
2023/08/18 02:12:48;;;;;;;5.78;5.28;;;24.60;72.70;;;;;;5005251;28;20123;-64
2023/08/18 02:15:14;;;;;;;5.47;4.85;;;24.60;72.60;;;;;;5007009;28;20384;-60
2023/08/18 02:17:39;;;;;;;5.97;5.38;;;24.60;72.60;;;;;;5009525;28;20440;-65
2023/08/18 02:20:08;;;;;;;6.65;6.05;;;24.60;72.60;;;;;;5013975;28;20038;-58
2023/08/18 02:22:34;;;;;;;5.63;5.13;;;24.60;72.50;;;;;;5010561;28;20068;-66
2023/08/18 02:24:59;;;;;;;5.70;5.20;;;24.60;72.70;;;;;;5006214;28;20140;-63
2023/08/18 02:27:25;;;;;;;5.70;5.20;;;24.60;72.60;;;;;;5003977;28;20030;-66
2023/08/18 02:29:52;;;;;;;5.50;5.10;;;24.60;72.60;;;;;;4999814;28;20430;-61
2023/08/18 02:32:18;;;;;;;5.40;5.00;;;24.60;72.60;;;;;;5003058;28;20747;-60
2023/08/18 02:34:45;;;;;;;5.97;5.47;;;24.60;72.50;;;;;;5000856;28;20041;-61
2023/08/18 02:37:11;;;;;;;5.70;5.20;;;24.60;72.60;;;;;;5004278;28;20026;-64
2023/08/18 02:39:37;;;;;;;5.53;5.03;;;24.60;72.50;;;;;;5005389;28;20159;-65
2023/08/18 02:42:03;;;;;;;5.47;4.97;;;24.60;72.50;;;;;;5006355;28;20457;-65
2023/08/18 02:44:28;;;;;;;5.50;5.00;;;24.60;72.50;;;;;;5009754;28;20469;-63
2023/08/18 02:46:54;;;;;;;5.80;5.30;;;24.60;72.50;;;;;;5008037;28;20053;-56
2023/08/18 02:49:19;;;;;;;5.22;4.82;;;24.60;72.50;;;;;;5008176;28;20037;-63
2023/08/18 02:51:45;;;;;;;5.40;4.90;;;24.60;72.50;;;;;;4982680;28;20100;-65
2023/08/18 02:54:10;;;;;;;5.60;5.15;;;24.60;72.50;;;;;;5006533;28;20355;-60
2023/08/18 02:56:37;;;;;;;5.45;4.95;;;24.60;72.50;;;;;;5001286;28;20739;-64
2023/08/18 02:59:02;;;;;;;5.47;4.97;;;24.60;72.50;;;;;;4985373;28;20042;-64
2023/08/18 03:01:28;;;;;;;4.90;4.50;;;24.60;72.50;;;;;;5006166;28;20040;-65
2023/08/18 03:03:53;;;;;;;5.43;5.00;;;24.60;72.50;;;;;;5008382;28;20048;-61
2023/08/18 03:06:19;;;;;;;5.72;5.22;;;24.60;72.40;;;;;;5006939;28;20060;-65
2023/08/18 03:08:45;;;;;;;5.78;5.03;;;24.60;72.40;;;;;;5002686;28;20053;-57
2023/08/18 03:11:10;;;;;;;6.32;5.72;;;24.60;72.50;;;;;;4991150;28;20038;-64
2023/08/18 03:13:36;;;;;;;6.68;5.18;;;24.60;72.50;;;;;;5005090;28;20537;-66
2023/08/18 03:16:04;;;;;;;5.55;5.00;;;24.60;72.40;;;;;;5006907;28;20492;-61
2023/08/18 03:18:30;;;;;;;5.13;4.72;;;24.60;72.30;;;;;;5014637;28;20095;-65
2023/08/18 03:21:00;;;;;;;5.32;4.93;;;24.60;72.40;;;;;;5010136;28;20516;-60
2023/08/18 03:23:27;;;;;;;5.72;5.22;;;24.50;72.30;;;;;;5006382;28;20060;-62
2023/08/18 03:26:03;;;;;;;5.32;4.82;;;24.60;72.30;;;;;;5004003;28;20030;-63
2023/08/18 03:28:31;;;;;;;5.30;4.80;;;24.60;72.40;;;;;;5006736;28;20030;-60
2023/08/18 03:31:07;;;;;;;5.10;4.70;;;24.50;72.40;;;;;;5006565;28;20426;-64
2023/08/18 03:33:33;;;;;;;5.82;5.32;;;24.60;72.50;;;;;;5002825;28;20046;-61
2023/08/18 03:35:59;;;;;;;5.32;4.85;;;24.60;72.40;;;;;;5002500;28;20481;-64
2023/08/18 03:38:25;;;;;;;5.43;5.03;;;24.60;72.40;;;;;;5005159;28;20489;-62
2023/08/18 03:41:02;;;;;;;5.35;4.88;;;24.50;72.30;;;;;;4988169;28;20037;-65
2023/08/18 03:43:27;;;;;;;4.97;4.57;;;24.50;72.20;;;;;;5010465;28;20118;-60
2023/08/18 03:45:58;;;;;;;5.22;4.72;;;24.50;72.30;;;;;;5009750;28;20053;-63
2023/08/18 03:48:24;;;;;;;5.30;4.80;;;24.50;72.30;;;;;;5011892;28;20176;-58
2023/08/18 03:50:49;;;;;;;4.82;4.38;;;24.50;72.30;;;;;;5006332;28;20564;-64
2023/08/18 03:53:15;;;;;;;5.63;5.22;;;24.60;72.30;;;;;;5005772;28;20041;-66
2023/08/18 03:55:41;;;;;;;5.38;4.90;;;24.60;72.30;;;;;;5004771;28;20033;-61
2023/08/18 03:58:07;;;;;;;5.25;4.78;;;24.50;72.20;;;;;;5005626;28;20111;-61
2023/08/18 04:00:32;;;;;;;5.05;4.65;;;24.50;72.30;;;;;;5005673;28;20480;-60
2023/08/18 04:02:58;;;;;;;4.85;4.30;;;24.50;72.30;;;;;;5005166;28;20115;-61
2023/08/18 04:05:23;;;;;;;4.93;4.53;;;24.50;72.20;;;;;;5006587;28;20113;-60
2023/08/18 04:07:50;;;;;;;6.68;4.93;;;24.50;72.20;;;;;;5003722;28;20033;-63
2023/08/18 04:10:16;;;;;;;5.28;4.75;;;24.50;72.30;;;;;;5007731;28;20052;-65
2023/08/18 04:12:41;;;;;;;5.18;4.78;;;24.50;72.20;;;;;;5006418;28;20472;-66
2023/08/18 04:15:07;;;;;;;6.00;4.88;;;24.50;72.20;;;;;;5009062;28;20026;-60
2023/08/18 04:17:33;;;;;;;5.43;4.88;;;24.50;72.20;;;;;;5007778;28;20034;-64
2023/08/18 04:19:58;;;;;;;5.13;4.72;;;24.50;72.20;;;;;;4987277;28;20508;-64
2023/08/18 04:22:24;;;;;;;6.20;4.63;;;24.50;72.20;;;;;;5000948;28;20121;-64
2023/08/18 04:24:49;;;;;;;5.28;4.88;;;24.40;72.30;;;;;;5003887;28;20026;-63
2023/08/18 04:27:14;;;;;;;5.60;5.10;;;24.50;72.40;;;;;;5002679;28;20057;-65
2023/08/18 04:29:40;;;;;;;5.50;5.10;;;24.50;72.30;;;;;;5005394;28;20120;-63
2023/08/18 04:32:06;;;;;;;4.80;4.30;;;24.50;72.20;;;;;;5007705;28;20034;-65
2023/08/18 04:34:31;;;;;;;5.10;4.60;;;24.50;72.10;;;;;;5002061;28;20409;-56
2023/08/18 04:36:57;;;;;;;5.10;4.70;;;24.50;72.10;;;;;;4999752;28;20494;-65
2023/08/18 04:39:22;;;;;;;5.45;4.95;;;24.50;72.00;;;;;;5006896;28;20030;-62
2023/08/18 04:41:48;;;;;;;7.35;5.35;;;24.50;71.90;;;;;;5007864;28;20702;-64
2023/08/18 04:44:13;;;;;;;5.15;4.75;;;24.50;71.90;;;;;;4991229;28;20049;-62
2023/08/18 04:46:39;;;;;;;5.53;4.82;;;24.50;72.00;;;;;;5013250;28;20041;-65
2023/08/18 04:49:04;;;;;;;4.80;4.40;;;24.50;72.00;;;;;;5008672;28;20107;-63
2023/08/18 04:51:30;;;;;;;5.82;5.28;;;24.50;71.90;;;;;;5004742;28;20034;-63
2023/08/18 04:53:55;;;;;;;4.95;4.43;;;24.50;71.80;;;;;;5004151;28;20026;-65
2023/08/18 04:56:21;;;;;;;5.20;4.80;;;24.50;71.80;;;;;;5005508;28;20038;-60
2023/08/18 04:58:46;;;;;;;4.70;4.22;;;24.50;71.90;;;;;;5003507;28;20056;-61
2023/08/18 05:01:12;;;;;;;6.68;6.07;;;24.40;71.90;;;;;;5005411;28;20072;-63
2023/08/18 05:03:37;;;;;;;6.93;5.60;;;24.40;71.20;;;;;;5004233;28;20641;-63
2023/08/18 05:06:08;;;;;;;5.82;5.22;;;24.30;71.20;;;;;;5002632;28;20117;-66
2023/08/18 05:08:34;;;;;;;5.70;5.20;;;24.30;72.50;;;;;;5002050;28;20046;-65
2023/08/18 05:11:08;;;;;;;5.22;4.82;;;24.30;72.50;;;;;;5009853;28;20033;-66
2023/08/18 05:13:34;;;;;;;6.72;5.82;;;24.20;72.10;;;;;;4989906;28;20523;-67
2023/08/18 05:16:00;;;;;;;6.93;5.95;;;24.20;71.80;;;;;;5011056;28;20044;-66
2023/08/18 05:18:29;;;;;;;6.80;6.18;;;24.20;71.70;;;;;;5005764;28;20481;-65
2023/08/18 05:21:04;;;;;;;7.25;6.55;;;24.20;71.60;;;;;;5006831;28;20029;-65
2023/08/18 05:23:30;;;;;;;6.57;5.90;;;24.10;71.60;;;;;;5004093;28;20650;-63
2023/08/18 05:25:56;;;;;;;7.65;5.93;;;24.20;71.60;;;;;;4985697;28;20080;-63
2023/08/18 05:28:28;;;;;;;7.53;6.28;;;24.10;71.50;;;;;;5001222;28;20037;-68
2023/08/18 05:30:53;;;;;;;8.10;6.75;;;24.20;71.70;;;;;;5005751;28;20117;-67
2023/08/18 05:33:19;;;;;;;8.93;6.25;;;24.10;71.70;;;;;;4999969;28;20493;-65
2023/08/18 05:35:47;;;;;;;7.60;6.38;;;24.10;71.70;;;;;;5002203;28;20057;-66
2023/08/18 05:38:12;;;;;;;7.07;6.47;;;24.10;71.80;;;;;;5006958;28;20095;-61
2023/08/18 05:40:46;;;;;;;8.35;6.38;;;24.10;71.90;;;;;;5001909;28;20440;-66
2023/08/18 05:43:14;;;;;;;7.13;6.43;;;24.10;71.90;;;;;;5003847;28;20038;-67
2023/08/18 05:45:40;;;;;;;7.78;7.00;;;24.10;72.10;;;;;;5008185;28;20021;-62
2023/08/18 05:48:05;;;;;;;10.45;7.10;;;24.00;72.50;;;;;;5001966;28;20044;-65
2023/08/18 05:50:32;;;;;;;8.80;6.90;;;24.00;73.00;;;;;;5001894;28;20030;-65
2023/08/18 05:52:58;;;;;;;6.97;6.38;;;24.00;73.20;;;;;;5004925;28;20238;-65
2023/08/18 05:55:24;;;;;;;8.68;7.78;;;24.00;73.20;;;;;;5000698;28;20385;-65
2023/08/18 05:57:52;;;;;;;9.75;6.68;;;24.00;73.10;;;;;;5000781;28;20401;-64
2023/08/18 06:00:18;;;;;;;9.15;7.28;;;23.90;73.40;;;;;;5005964;28;20060;-65
2023/08/18 06:02:43;;;;;;;8.88;7.88;;;24.00;73.70;;;;;;4998931;28;20030;-65
2023/08/18 06:05:12;;;;;;;14.05;9.55;;;24.00;73.70;;;;;;5003546;28;20440;-69
2023/08/18 06:07:41;;;;;;;11.20;8.88;;;23.90;73.60;;;;;;5000132;28;20367;-67
2023/08/18 06:10:08;;;;;;;9.50;8.52;;;23.90;73.90;;;;;;4996075;28;20365;-67
2023/08/18 06:12:34;;;;;;;10.18;8.85;;;23.90;73.60;;;;;;5003453;28;20212;-67
2023/08/18 06:15:00;;;;;;;11.77;10.05;;;23.90;73.80;;;;;;5003503;28;20342;-67
2023/08/18 06:17:25;;;;;;;9.20;8.40;;;23.80;73.80;;;;;;5005019;28;20416;-66
2023/08/18 06:19:52;;;;;;;9.35;7.75;;;23.80;73.80;;;;;;5006839;28;20041;-67
2023/08/18 06:22:18;;;;;;;8.85;7.82;;;23.80;73.50;;;;;;5005535;28;20096;-65
2023/08/18 06:24:43;;;;;;;8.32;7.53;;;23.80;73.30;;;;;;5005832;28;20432;-66
2023/08/18 06:27:09;;;;;;;7.78;6.95;;;23.80;73.20;;;;;;5006766;28;20026;-65
2023/08/18 06:29:35;;;;;;;7.57;6.78;;;23.80;73.20;;;;;;5007784;28;20077;-66
2023/08/18 06:32:00;;;;;;;9.05;7.18;;;23.80;73.10;;;;;;5008213;28;20030;-66
2023/08/18 06:34:26;;;;;;;6.80;5.97;;;23.80;72.90;;;;;;5011260;28;20064;-65
2023/08/18 06:36:51;;;;;;;8.93;6.32;;;23.90;73.00;;;;;;5007375;28;20103;-65
2023/08/18 06:39:17;;;;;;;8.25;7.45;;;23.90;73.10;;;;;;5011878;28;20505;-65
2023/08/18 06:41:43;;;;;;;7.15;6.53;;;23.90;73.20;;;;;;5006293;28;20515;-65
2023/08/18 06:44:08;;;;;;;7.57;6.55;;;23.80;72.90;;;;;;5014351;28;20029;-65
2023/08/18 06:46:34;;;;;;;8.85;5.80;;;23.80;72.70;;;;;;5007800;28;20501;-67
2023/08/18 06:49:01;;;;;;;7.53;6.78;;;23.70;72.50;;;;;;5008551;28;20088;-66
2023/08/18 06:51:27;;;;;;;7.30;6.60;;;23.70;72.60;;;;;;5009958;28;20422;-66
2023/08/18 06:53:53;;;;;;;7.80;7.10;;;23.70;72.50;;;;;;5005717;28;20034;-65
2023/08/18 06:56:18;;;;;;;7.15;6.30;;;23.80;72.40;;;;;;5006505;28;20040;-65
2023/08/18 06:58:44;;;;;;;8.25;6.80;;;23.70;72.30;;;;;;5010308;28;20030;-63
2023/08/18 07:01:09;;;;;;;10.27;7.60;;;23.80;72.50;;;;;;5003304;28;20431;-66
2023/08/18 07:03:35;;;;;;;9.07;7.20;;;23.80;72.70;;;;;;5005779;28;20088;-65
2023/08/18 07:06:00;;;;;;;6.80;6.18;;;23.80;72.80;;;;;;5007640;28;20050;-66
2023/08/18 07:08:26;;;;;;;7.95;7.15;;;23.80;72.90;;;;;;5011636;28;20120;-66
2023/08/18 07:10:51;;;;;;;7.05;6.35;;;23.80;72.90;;;;;;5009377;28;20586;-64
2023/08/18 07:13:17;;;;;;;8.25;7.53;;;23.80;73.00;;;;;;5009298;28;20518;-67
2023/08/18 07:15:42;;;;;;;8.40;5.95;;;23.80;72.90;;;;;;5006518;28;20034;-66
2023/08/18 07:18:08;;;;;;;7.03;6.43;;;23.80;72.90;;;;;;5008578;28;20485;-66
2023/08/18 07:20:33;;;;;;;8.10;7.30;;;23.70;73.00;;;;;;5010142;28;20145;-66
2023/08/18 07:22:59;;;;;;;8.18;6.75;;;23.70;73.20;;;;;;5005502;28;20558;-65
2023/08/18 07:25:24;;;;;;;8.05;7.35;;;23.70;73.30;;;;;;5006238;28;20560;-66
2023/08/18 07:27:50;;;;;;;7.55;6.85;;;23.70;73.40;;;;;;5007257;28;20037;-65
2023/08/18 07:30:16;;;;;;;10.85;9.00;;;23.70;73.70;;;;;;5001676;28;20057;-67
2023/08/18 07:32:41;;;;;;;8.40;7.70;;;23.70;73.60;;;;;;5003405;28;20018;-65
2023/08/18 07:35:08;;;;;;;8.38;7.57;;;23.80;73.70;;;;;;5007725;28;20394;-66
2023/08/18 07:37:35;;;;;;;9.20;7.57;;;23.90;73.40;;;;;;5008560;28;20049;-65
2023/08/18 07:40:05;;;;;;;9.15;8.35;;;23.80;73.70;;;;;;5007866;28;20026;-65
2023/08/18 07:42:30;;;;;;;8.15;7.35;;;23.80;73.70;;;;;;5005779;28;20121;-66
2023/08/18 07:44:56;;;;;;;11.35;8.07;;;23.80;73.30;;;;;;5008959;28;20120;-67
2023/08/18 07:47:21;;;;;;;9.45;8.52;;;23.80;73.70;;;;;;5005835;28;20034;-66
2023/08/18 07:49:47;;;;;;;8.98;8.05;;;23.80;73.80;;;;;;4980609;28;20492;-66
2023/08/18 07:52:12;;;;;;;10.48;8.45;;;23.80;73.70;;;;;;5006816;28;20033;-66
2023/08/18 07:54:38;;;;;;;9.50;8.43;;;23.90;73.60;;;;;;5005218;28;20048;-65
2023/08/18 07:57:03;;;;;;;9.70;8.32;;;23.90;73.80;;;;;;5008402;28;20504;-65
2023/08/18 07:59:29;;;;;;;9.32;8.40;;;23.90;74.00;;;;;;5010415;28;20091;-63
2023/08/18 08:01:55;;;;;;;12.20;8.85;;;23.90;73.90;;;;;;4998692;28;20035;-65
2023/08/18 08:04:20;;;;;;;9.00;8.00;;;23.80;74.00;;;;;;5006557;28;20162;-65
2023/08/18 08:06:46;;;;;;;10.02;9.02;;;23.90;73.80;;;;;;5007984;28;20045;-66
2023/08/18 08:09:11;;;;;;;10.25;8.80;;;23.90;72.80;;;;;;4993410;28;20118;-64
2023/08/18 08:11:37;;;;;;;10.02;8.80;;;23.90;72.80;;;;;;5010868;28;20032;-65
2023/08/18 08:14:03;;;;;;;9.30;8.35;;;23.90;72.80;;;;;;5006955;28;20067;-66
2023/08/18 08:16:28;;;;;;;9.52;8.40;;;23.90;72.80;;;;;;5003242;28;20052;-64
2023/08/18 08:18:54;;;;;;;8.52;7.72;;;23.90;72.80;;;;;;5008366;28;20335;-67
2023/08/18 08:21:20;;;;;;;8.48;7.68;;;23.90;72.80;;;;;;5003306;28;20050;-66
2023/08/18 08:23:46;;;;;;;9.35;8.35;;;24.00;72.70;;;;;;5003558;28;20045;-65
2023/08/18 08:26:12;;;;;;;14.23;9.90;;;24.00;73.00;;;;;;5005678;28;20050;-64
2023/08/18 08:28:38;;;;;;;16.77;10.15;;;24.00;73.30;;;;;;5004642;28;20030;-64
2023/08/18 08:31:03;;;;;;;17.98;11.00;;;24.00;73.20;;;;;;5005805;28;20107;-67
2023/08/18 08:33:31;;;;;;;13.88;9.88;;;24.00;73.00;;;;;;5004157;28;20129;-65
2023/08/18 08:35:57;;;;;;;19.85;10.50;;;24.00;72.80;;;;;;5002710;28;20096;-66
2023/08/18 08:38:22;;;;;;;12.40;9.63;;;24.00;72.70;;;;;;5008009;28;20146;-65
2023/08/18 08:40:48;;;;;;;12.73;9.75;;;24.00;72.70;;;;;;5011033;28;20552;-66
2023/08/18 08:43:14;;;;;;;11.77;9.32;;;24.00;72.60;;;;;;4989030;28;20081;-65
2023/08/18 08:45:40;;;;;;;13.27;9.55;;;24.00;72.60;;;;;;5005096;28;20038;-66
2023/08/18 08:48:09;;;;;;;11.35;8.57;;;24.00;72.60;;;;;;5007093;28;20443;-66
2023/08/18 08:50:40;;;;;;;10.05;8.82;;;24.10;72.90;;;;;;5004452;28;20407;-65
2023/08/18 08:53:09;;;;;;;9.35;8.45;;;24.10;72.60;;;;;;5000872;28;20026;-66
2023/08/18 08:55:36;;;;;;;10.25;9.15;;;24.00;72.50;;;;;;5004284;28;20029;-66
2023/08/18 08:58:02;;;;;;;10.85;9.60;;;24.00;72.60;;;;;;5011783;28;20075;-66
2023/08/18 09:00:29;;;;;;;9.57;8.57;;;24.10;72.80;;;;;;5001260;28;20106;-67
2023/08/18 09:03:02;;;;;;;10.48;8.85;;;24.10;73.00;;;;;;5000922;28;20030;-65
2023/08/18 09:05:30;;;;;;;10.75;9.48;;;24.10;73.20;;;;;;5008522;28;20026;-66
2023/08/18 09:07:55;;;;;;;10.13;8.80;;;24.10;73.30;;;;;;5009197;28;20117;-65
2023/08/18 09:10:21;;;;;;;11.18;9.30;;;24.10;73.20;;;;;;5006682;28;20200;-66
2023/08/18 09:12:47;;;;;;;9.77;8.88;;;24.10;73.10;;;;;;5006865;28;20029;-66
2023/08/18 09:15:12;;;;;;;9.80;8.80;;;24.10;73.30;;;;;;5006021;28;20026;-65
2023/08/18 09:17:38;;;;;;;10.25;9.15;;;24.10;73.20;;;;;;5005454;28;20032;-65
2023/08/18 09:20:04;;;;;;;10.20;9.30;;;24.10;73.30;;;;;;4979716;28;20018;-65
2023/08/18 09:22:30;;;;;;;10.40;8.70;;;24.10;74.10;;;;;;5002825;28;20405;-65
2023/08/18 09:24:56;;;;;;;9.77;8.88;;;24.10;73.90;;;;;;5002533;28;20032;-67
2023/08/18 09:27:22;;;;;;;10.65;9.60;;;24.10;73.70;;;;;;5002634;28;20034;-67
2023/08/18 09:29:48;;;;;;;10.60;9.55;;;24.10;73.60;;;;;;5003069;28;20034;-66
2023/08/18 09:32:14;;;;;;;9.95;8.98;;;24.10;73.70;;;;;;5001057;28;20026;-66
2023/08/18 09:34:44;;;;;;;10.57;9.48;;;24.20;73.80;;;;;;5005691;28;20041;-66
2023/08/18 09:37:09;;;;;;;10.70;9.73;;;24.20;73.60;;;;;;5002947;28;20507;-66
2023/08/18 09:39:35;;;;;;;10.77;9.68;;;24.20;74.20;;;;;;5003100;28;20065;-65
2023/08/18 09:42:01;;;;;;;11.75;10.55;;;24.20;73.60;;;;;;5005278;28;20033;-67
2023/08/18 09:44:28;;;;;;;12.40;11.20;;;24.20;74.10;;;;;;5006346;28;20476;-66
2023/08/18 09:46:58;;;;;;;11.38;9.90;;;24.20;75.00;;;;;;5006632;28;20558;-66
2023/08/18 09:49:25;;;;;;;12.13;11.02;;;24.20;74.40;;;;;;5008242;28;20092;-65
2023/08/18 09:51:53;;;;;;;10.90;9.80;;;24.20;74.40;;;;;;5001902;28;20042;-66
2023/08/18 09:54:20;;;;;;;10.43;9.27;;;24.20;74.40;;;;;;5005038;28;20037;-66
2023/08/18 09:56:48;;;;;;;11.15;9.88;;;24.20;73.90;;;;;;5005789;28;20049;-65
2023/08/18 09:59:25;;;;;;;11.75;10.55;;;24.20;74.30;;;;;;5007319;28;20353;-65
2023/08/18 10:01:52;;;;;;;11.95;10.68;;;24.20;74.40;;;;;;4998324;28;20087;-64
2023/08/18 10:04:22;;;;;;;12.75;10.45;;;24.20;74.30;;;;;;5004526;28;20119;-65
2023/08/18 10:06:48;;;;;;;11.68;10.48;;;24.20;74.20;;;;;;5006680;28;20455;-65
2023/08/18 10:09:14;;;;;;;11.38;10.27;;;24.20;74.10;;;;;;5004005;28;20896;-60
2023/08/18 10:11:40;;;;;;;13.18;11.30;;;24.30;74.50;;;;;;5003606;28;20064;-68
2023/08/18 10:14:06;;;;;;;11.32;10.07;;;24.30;74.40;;;;;;5007013;28;20041;-67
2023/08/18 10:16:33;;;;;;;11.32;10.18;;;24.30;74.50;;;;;;5005595;28;20335;-65
2023/08/18 10:18:58;;;;;;;11.45;9.85;;;24.30;74.50;;;;;;5003538;28;20528;-66
2023/08/18 10:21:26;;;;;;;11.48;10.27;;;24.30;74.40;;;;;;5004534;28;20121;-66
2023/08/18 10:23:52;;;;;;;12.30;11.10;;;24.30;74.50;;;;;;5005974;28;20544;-67
2023/08/18 10:26:18;;;;;;;12.38;11.18;;;24.30;74.60;;;;;;5006656;28;20110;-66
2023/08/18 10:28:46;;;;;;;11.93;10.80;;;24.30;74.30;;;;;;5003907;28;20026;-67
2023/08/18 10:31:14;;;;;;;11.07;9.95;;;24.30;74.50;;;;;;5002282;28;20715;-66
2023/08/18 10:33:48;;;;;;;13.65;11.68;;;24.30;74.50;;;;;;4998145;28;20493;-68
2023/08/18 10:36:21;;;;;;;12.57;11.30;;;24.30;74.50;;;;;;5004932;28;20033;-66
2023/08/18 10:38:46;;;;;;;12.50;11.15;;;24.30;75.00;;;;;;5004552;28;20049;-63
2023/08/18 10:41:12;;;;;;;12.60;10.38;;;24.30;74.80;;;;;;5005147;28;20049;-67
2023/08/18 10:43:51;;;;;;;12.15;10.77;;;24.30;74.80;;;;;;4994334;28;20030;-63
2023/08/18 10:46:17;;;;;;;13.13;11.68;;;24.30;75.00;;;;;;5004014;28;20273;-65
2023/08/18 10:48:43;;;;;;;13.10;11.30;;;24.30;75.20;;;;;;5002712;28;20037;-69
2023/08/18 10:51:08;;;;;;;12.35;11.15;;;24.40;74.80;;;;;;5005058;28;20343;-66
2023/08/18 10:53:37;;;;;;;14.15;10.88;;;24.40;75.30;;;;;;5004245;28;20077;-66
2023/08/18 10:56:05;;;;;;;12.98;11.65;;;24.40;75.10;;;;;;5004354;28;20475;-66
2023/08/18 10:58:32;;;;;;;12.50;11.20;;;24.40;74.70;;;;;;5007439;28;20041;-64
2023/08/18 11:00:58;;;;;;;13.30;11.93;;;24.40;74.70;;;;;;5004090;28;20025;-67
2023/08/18 11:03:25;;;;;;;13.63;12.15;;;24.50;74.80;;;;;;5008207;28;20768;-67
2023/08/18 11:05:51;;;;;;;12.27;11.07;;;24.50;74.90;;;;;;5008929;28;20076;-66
2023/08/18 11:08:18;;;;;;;14.52;12.35;;;24.40;74.50;;;;;;5005713;28;20042;-67
2023/08/18 11:10:44;;;;;;;14.38;12.88;;;24.40;74.80;;;;;;5006602;28;20041;-66
2023/08/18 11:13:24;;;;;;;14.02;12.18;;;24.40;74.70;;;;;;5009698;28;20046;-67
2023/08/18 11:15:54;;;;;;;13.20;11.40;;;24.40;74.70;;;;;;5008598;28;20441;-65
2023/08/18 11:18:21;;;;;;;12.57;11.18;;;24.50;74.50;;;;;;4964666;28;20081;-65
2023/08/18 11:20:48;;;;;;;13.32;11.70;;;24.50;74.90;;;;;;5008815;28;20090;-66
2023/08/18 11:23:14;;;;;;;14.65;12.00;;;24.60;74.90;;;;;;5005832;28;20033;-67
2023/08/18 11:25:39;;;;;;;12.90;11.63;;;24.60;75.10;;;;;;5004692;28;20021;-67
2023/08/18 11:28:05;;;;;;;13.80;11.88;;;24.60;75.00;;;;;;5004600;28;20022;-66
2023/08/18 11:30:31;;;;;;;16.70;12.20;;;24.60;74.50;;;;;;5007437;28;20393;-67
2023/08/18 11:32:57;;;;;;;12.88;11.40;;;24.60;74.40;;;;;;5005826;28;20034;-66
2023/08/18 11:35:25;;;;;;;12.05;10.82;;;24.60;74.30;;;;;;5005929;28;20056;-64
2023/08/18 11:37:52;;;;;;;13.13;11.73;;;24.60;75.30;;;;;;5007045;28;20041;-67
2023/08/18 11:40:21;;;;;;;13.15;11.93;;;24.60;75.40;;;;;;5008385;28;20022;-68
2023/08/18 11:42:49;;;;;;;12.75;11.43;;;24.60;75.70;;;;;;5011208;28;20057;-66
2023/08/18 11:45:18;;;;;;;13.23;11.75;;;24.70;75.30;;;;;;5010054;28;20026;-67
2023/08/18 11:47:44;;;;;;;14.07;11.85;;;24.70;75.20;;;;;;5007394;28;20080;-65
2023/08/18 11:50:12;;;;;;;13.02;11.57;;;24.60;74.90;;;;;;5014008;28;20087;-67
2023/08/18 11:52:41;;;;;;;12.93;11.63;;;24.60;74.80;;;;;;5010212;28;20039;-66
2023/08/18 11:55:08;;;;;;;13.52;12.23;;;24.60;74.70;;;;;;5005853;28;20038;-69
2023/08/18 11:57:33;;;;;;;13.20;11.80;;;24.60;74.70;;;;;;5006590;28;20121;-66
2023/08/18 12:00:04;;;;;;;13.73;12.07;;;24.70;74.70;;;;;;5008228;28;20109;-66
2023/08/18 12:02:33;;;;;;;12.85;11.48;;;24.70;75.00;;;;;;5008725;28;20030;-65
2023/08/18 12:04:59;;;;;;;13.30;12.00;;;24.70;74.70;;;;;;5010657;28;20038;-69
2023/08/18 12:07:24;;;;;;;14.38;11.38;;;24.70;74.70;;;;;;5006080;28;20994;-65
2023/08/18 12:09:50;;;;;;;13.45;12.07;;;24.70;74.90;;;;;;5009049;28;20042;-66
2023/08/18 12:12:15;;;;;;;16.05;11.75;;;24.70;74.80;;;;;;5008409;28;20037;-67
2023/08/18 12:14:42;;;;;;;14.52;12.63;;;24.70;74.60;;;;;;5010228;28;20038;-67
2023/08/18 12:17:07;;;;;;;13.65;12.25;;;24.70;74.50;;;;;;5006676;28;20057;-68
2023/08/18 12:19:33;;;;;;;12.82;11.23;;;24.70;74.50;;;;;;5004840;28;20057;-66
2023/08/18 12:21:59;;;;;;;13.20;11.18;;;24.70;74.50;;;;;;5005878;28;20084;-69
2023/08/18 12:24:24;;;;;;;14.75;12.27;;;24.80;74.70;;;;;;5003862;28;20185;-67
2023/08/18 12:26:50;;;;;;;13.38;11.32;;;24.80;74.40;;;;;;5001600;28;20533;-67
2023/08/18 12:29:15;;;;;;;13.02;11.77;;;24.80;74.40;;;;;;5001273;28;20034;-68
2023/08/18 12:31:41;;;;;;;14.38;12.45;;;24.80;74.40;;;;;;5003646;28;20057;-67
2023/08/18 12:34:07;;;;;;;14.90;11.93;;;24.80;74.10;;;;;;5004093;28;20033;-65
2023/08/18 12:36:33;;;;;;;13.27;11.98;;;24.90;74.10;;;;;;5004112;28;20440;-66